Latest Weather Observations for Merriwa

IDN60801

Issued at 11:32 pm EST Tuesday 4 August 2015 (issued every 30 minutes, with the page automatically refreshed every 10 minutes)

About weather observations | Map of weather stations | Latest weather observations for NSW | Other Formats
Station Details ID: 061287 Name: MERRIWA (ROSCOMMON) Lat: -32.19 Lon: 150.17 Height: 375.0 m
Data from the previous 72 hours. | See also: Recent months at Merriwa
Date/Time
EST
Temp
°C
App
Temp
°C
Dew
Point
Rel
Hum
%
Delta-T
°C
Wind Press
QNH
hPa
Press
MSL
hPa
Rain
since 9 am
mm
Dir
 
Spd
km/h
Gust
km/h
Spd
kts
Gust
kts
04/11:30pm 0.7 -4.1 -2.9 77 1.3 NW 13 17 7 9 1019.8 1020.0 0.0
04/11:00pm 1.2 -4.0 -2.5 76 1.4 NW 15 17 8 9 1020.2 1020.3 0.0
04/10:30pm 1.3 -3.5 -2.6 75 1.4 NW 13 15 7 8 1020.6 1020.8 0.0
04/10:00pm 2.4 -2.7 -2.1 72 1.6 WNW 15 20 8 11 1020.8 1021.0 0.0
04/09:30pm 2.4 -2.7 -1.9 73 1.5 WNW 15 19 8 10 1020.8 1021.0 0.0
04/09:00pm 2.7 -2.3 -1.5 74 1.5 WNW 15 20 8 11 1021.0 1021.2 0.0
04/08:30pm 2.4 -2.3 -1.6 75 1.5 WNW 13 17 7 9 1021.1 1021.3 0.0
04/08:00pm 2.9 -1.4 -1.6 72 1.6 WNW 11 15 6 8 1021.2 1021.4 0.0
04/07:30pm 3.7 -1.3 -1.4 69 1.9 WNW 15 20 8 11 1021.0 1021.2 0.0
04/07:00pm 3.9 -1.2 -1.7 67 2.1 WNW 15 20 8 11 1020.8 1021.0 0.0
04/06:30pm 5.0 -0.8 -1.2 64 2.3 WNW 19 22 10 12 1020.6 1020.8 0.0
04/06:00pm 5.4 -0.3 -1.1 63 2.5 WNW 19 24 10 13 1020.4 1020.6 0.0
04/05:30pm 6.3 0.5 -1.3 58 2.9 WNW 19 26 10 14 1019.9 1020.1 0.0
04/05:00pm 8.1 2.1 -1.4 51 3.7 WNW 20 28 11 15 1019.9 1020.1 0.0
04/04:30pm 9.6 3.2 -1.4 46 4.4 WNW 22 30 12 16 1019.6 1019.8 0.0
04/04:00pm 10.5 4.1 -1.9 42 4.9 WNW 22 30 12 16 1019.4 1019.6 0.0
04/03:30pm 11.0 4.5 -2.1 40 5.2 NW 22 32 12 17 1019.4 1019.6 0.0
04/03:00pm 11.0 5.5 -2.1 40 5.2 WNW 17 24 9 13 1019.6 1019.8 0.0
04/02:30pm 11.2 6.6 -1.2 42 5.0 WSW 13 22 7 12 1019.7 1019.9 0.0
04/02:00pm 9.9 4.8 -2.1 43 4.7 W 15 22 8 12 1020.1 1020.2 0.0
04/01:30pm 10.9 5.4 -1.8 41 5.1 W 17 26 9 14 1020.3 1020.4 0.0
04/01:00pm 10.4 5.0 -1.6 43 4.8 NNW 17 24 9 13 1020.7 1020.9 0.0
04/12:30pm 9.8 4.2 -2.5 42 4.8 NNW 17 22 9 12 1021.4 1021.6 0.0
04/12:00pm 10.2 5.1 -2.1 42 4.8 NNW 15 26 8 14 1022.0 1022.2 0.0
04/11:30am 9.3 4.2 -1.7 46 4.3 WNW 15 22 8 12 1022.6 1022.9 0.0
04/11:00am 8.3 3.6 -2.0 48 3.9 W 13 22 7 12 1022.7 1023.0 0.0
04/10:30am 8.2 3.9 -1.3 51 3.7 WSW 11 15 6 8 1023.1 1023.3 0.0
04/10:00am 9.2 4.7 -0.1 52 3.8 WNW 13 20 7 11 1023.1 1023.3 0.0
04/09:30am 8.2 4.1 0.0 56 3.3 WNW 11 17 6 9 1023.0 1023.2 0.0
04/09:00am 5.4 2.6 2.9 84 1.0 W 7 9 4 5 1023.1 1023.3 0.0
04/08:30am 6.1 3.0 3.4 83 1.2 W 9 11 5 6 1022.8 1023.1 0.0
04/08:00am 5.5 2.4 3.7 88 0.8 WNW 9 11 5 6 1022.6 1022.9 0.0
04/07:30am 5.1 2.0 3.8 91 0.6 W 9 11 5 6 1022.6 1022.9 0.0
04/07:00am 4.5 1.3 3.3 92 0.5 WNW 9 11 5 6 1022.4 1022.6 0.0
04/06:30am 4.2 1.1 3.5 95 0.3 WNW 9 13 5 7 1022.1 1022.3 0.0
04/06:00am 4.3 0.8 3.7 96 0.3 WNW 11 15 6 8 1021.8 1022.0 0.0
04/05:30am 3.9 0.8 3.6 98 0.1 WNW 9 13 5 7 1021.6 1021.8 0.0
04/05:00am 2.7 -0.7 2.1 96 0.2 WNW 9 11 5 6 1021.5 1021.7 0.0
04/04:30am 2.6 -1.2 1.6 93 0.4 NW 11 13 6 7 1021.3 1021.5 0.0
04/04:00am 4.0 0.7 2.5 90 0.6 W 9 11 5 6 1021.3 1021.5 0.0
04/03:30am 5.7 3.2 3.9 88 0.8 WSW 6 7 3 4 1021.5 1021.7 0.0
04/03:00am 5.7 2.4 4.7 93 0.4 WNW 11 13 6 7 1021.7 1021.9 0.0
04/02:30am 3.5 0.5 1.9 89 0.6 W 7 9 4 5 1021.7 1021.9 0.0
04/02:00am 4.1 1.0 1.1 81 1.2 W 7 11 4 6 1021.9 1022.1 0.0
04/01:30am 5.2 2.2 2.2 81 1.2 SW 7 11 4 6 1022.1 1022.3 0.0
04/01:00am 6.1 2.4 2.6 78 1.5 W 11 15 6 8 1022.1 1022.3 0.0
04/12:30am 6.3 2.6 2.6 77 1.6 W 11 17 6 9 1022.1 1022.3 0.0
04/12:00am 8.2 5.0 2.9 69 2.3 W 9 11 5 6 1022.2 1022.4 0.0
 
Date/Time
EST
Temp
°C
App
Temp
°C
Dew
Point
Rel
Hum
%
Delta-T
°C
Wind Press
QNH
hPa
Press
MSL
hPa
Rain
since 9 am
mm
Dir
 
Spd
km/h
Gust
km/h
Spd
kts
Gust
kts
03/11:30pm 8.8 5.2 3.0 67 2.5 W 11 17 6 9 1022.2 1022.4 0.0
03/11:00pm 9.1 5.1 2.9 65 2.7 WSW 13 17 7 9 1022.3 1022.5 0.0
03/10:30pm 9.6 4.5 2.9 63 2.9 WSW 19 26 10 14 1022.3 1022.5 0.0
03/10:00pm 9.7 5.8 3.2 64 2.9 W 13 17 7 9 1022.3 1022.5 0.0
03/09:30pm 9.4 5.1 3.2 65 2.7 WNW 15 20 8 11 1022.1 1022.3 0.0
03/09:00pm 9.8 5.3 1.9 58 3.4 W 15 20 8 11 1021.9 1022.1 0.0
03/08:30pm 10.3 5.5 2.4 58 3.4 W 17 24 9 13 1021.8 1022.0 0.0
03/08:00pm 10.2 4.8 2.6 59 3.3 W 20 28 11 15 1021.6 1021.8 0.0
03/07:30pm 10.1 5.0 2.9 61 3.2 WNW 19 24 10 13 1021.5 1021.7 0.0
03/07:00pm 10.3 4.9 2.4 58 3.4 W 20 33 11 18 1021.3 1021.5 0.0
03/06:30pm 10.6 5.4 2.4 57 3.6 W 19 30 10 16 1021.0 1021.2 0.0
03/06:00pm 10.8 5.4 2.4 56 3.7 W 20 37 11 20 1020.5 1020.7 0.0
03/05:30pm 11.0 5.6 2.6 56 3.7 W 20 30 11 16 1020.1 1020.2 0.0
03/05:00pm 11.3 4.0 2.3 54 3.9 WSW 30 46 16 25 1019.2 1019.4 0.0
03/04:55pm 11.6 4.7 2.6 54 4.0 W 28 46 15 25 1019.2 1019.4 0.0
03/04:30pm 12.0 6.9 3.3 55 3.9 W 19 32 10 17 1018.8 1019.0 0.0
03/04:00pm 13.0 6.3 3.7 53 4.3 WNW 28 44 15 24 1018.3 1018.5 0.0
03/03:30pm 12.9 6.1 3.0 51 4.5 WNW 28 41 15 22 1018.0 1018.1 0.0
03/03:00pm 13.9 6.4 3.7 50 4.7 WNW 32 44 17 24 1017.5 1017.6 0.0
03/02:30pm 14.2 7.5 3.7 49 4.9 WNW 28 41 15 22 1017.4 1017.5 0.0
03/02:00pm 14.3 7.2 3.5 48 5.0 WNW 30 43 16 23 1017.4 1017.5 0.0
03/01:30pm 14.3 6.8 4.3 51 4.7 WNW 33 44 18 24 1017.6 1017.7 0.0
03/01:00pm 13.9 6.9 4.2 52 4.5 WNW 30 44 16 24 1017.8 1017.9 0.0
03/12:30pm 13.9 7.4 4.8 54 4.3 WNW 28 39 15 21 1018.1 1018.3 0.0
03/12:00pm 12.9 5.7 3.0 51 4.5 WNW 30 39 16 21 1018.4 1018.6 0.0
03/11:30am 12.4 5.8 4.4 58 3.7 WNW 28 39 15 21 1018.7 1018.9 0.0
03/11:00am 12.0 5.2 3.3 55 3.9 WNW 28 44 15 24 1019.0 1019.2 0.0
03/10:30am 11.1 4.0 3.6 60 3.4 WNW 30 39 16 21 1019.3 1019.5 0.0
03/10:00am 10.4 3.6 3.2 61 3.2 WNW 28 35 15 19 1019.4 1019.6 0.0
03/09:30am 9.5 2.7 3.0 64 2.9 WNW 28 37 15 20 1019.3 1019.5 0.0
03/09:00am 8.5 2.0 2.7 67 2.5 WNW 26 35 14 19 1019.3 1019.5 0.0
03/08:30am 7.4 0.9 2.5 71 2.1 NW 26 32 14 17 1019.3 1019.5 0.0
03/08:00am 6.1 -0.9 1.8 74 1.8 NW 28 33 15 18 1019.0 1019.2 0.0
03/07:30am 5.1 -1.5 1.8 79 1.3 NW 26 35 14 19 1018.8 1019.0 0.0
03/07:00am 4.5 -1.7 1.9 83 1.1 NW 24 32 13 17 1018.5 1018.7 0.0
03/06:30am 4.2 -1.7 1.7 84 1.0 WNW 22 30 12 16 1018.4 1018.6 0.0
03/06:00am 4.7 -1.8 2.4 85 0.9 WNW 26 33 14 18 1018.0 1018.1 0.0
03/05:30am 5.2 -1.2 3.1 86 0.9 WNW 26 35 14 19 1017.6 1017.7 0.0
03/05:00am 5.6 -0.7 3.9 89 0.7 WNW 26 37 14 20 1017.4 1017.5 0.0
03/04:30am 6.0 0.7 4.8 92 0.5 WNW 22 30 12 16 1017.4 1017.5 0.0
03/04:00am 6.7 2.0 5.3 91 0.6 WNW 19 30 10 16 1017.1 1017.3 0.0
03/03:30am 7.3 2.2 5.9 91 0.6 NW 22 30 12 16 1016.9 1017.1 0.0
03/03:00am 7.8 2.4 6.4 91 0.7 WNW 24 32 13 17 1016.7 1016.9 0.0
03/02:30am 8.3 3.0 6.8 90 0.7 WNW 24 32 13 17 1016.8 1017.0 0.0
03/02:00am 8.8 2.8 7.1 89 0.8 NW 28 35 15 19 1016.8 1017.0 0.0
03/01:30am 9.3 3.4 7.4 88 0.9 NW 28 39 15 21 1016.8 1017.0 0.0
03/01:00am 10.0 4.9 7.8 86 1.1 NW 24 33 13 18 1017.1 1017.3 0.0
03/12:30am 10.6 5.6 8.0 84 1.3 NW 24 32 13 17 1017.3 1017.4 0.0
03/12:00am 11.2 5.7 7.7 79 1.7 NW 26 32 14 17 1017.3 1017.4 0.0
 
Date/Time
EST
Temp
°C
App
Temp
°C
Dew
Point
Rel
Hum
%
Delta-T
°C
Wind Press
QNH
hPa
Press
MSL
hPa
Rain
since 9 am
mm
Dir
 
Spd
km/h
Gust
km/h
Spd
kts
Gust
kts
02/11:30pm 11.8 6.9 8.3 79 1.8 NW 24 32 13 17 1017.0 1017.2 0.0
02/11:00pm 12.0 7.9 8.5 79 1.8 NW 20 28 11 15 1016.8 1017.0 0.0
02/10:30pm 12.3 8.1 8.2 76 2.1 NW 20 24 11 13 1017.0 1017.2 0.0
02/10:00pm 13.5 9.4 8.6 72 2.5 WNW 20 26 11 14 1016.6 1016.8 0.0
02/09:30pm 13.5 10.0 8.6 72 2.5 WNW 17 20 9 11 1016.3 1016.5 0.0
02/09:00pm 14.6 10.8 7.6 63 3.5 W 17 30 9 16 1015.8 1015.9 0.0
02/08:30pm 16.2 13.0 8.4 60 4.0 NNW 15 19 8 10 1015.2 1015.3 0.0
02/08:00pm 13.4 10.2 7.0 65 3.2 NNW 13 15 7 8 1015.3 1015.4 0.0
02/07:30pm 12.6 9.3 6.4 66 3.0 NNW 13 15 7 8 1015.4 1015.5 0.0
02/07:00pm 14.6 10.8 7.4 62 3.6 NW 17 19 9 10 1015.3 1015.4 0.0
02/06:30pm 15.5 12.0 7.3 58 4.1 NW 15 20 8 11 1015.1 1015.2 0.0
02/06:00pm 16.7 13.2 7.1 53 4.9 NW 15 19 8 10 1014.9 1015.0 0.0
02/05:30pm 18.2 13.8 6.7 47 5.8 NW 19 24 10 13 1014.2 1014.4 0.0
02/05:00pm 20.6 16.3 6.9 41 7.1 NW 19 24 10 13 1014.0 1014.2 0.0
02/04:30pm 22.0 16.7 6.7 37 8.0 NNW 24 32 13 17 1013.5 1013.6 0.0
02/04:00pm 21.5 16.1 6.2 37 7.9 NW 24 32 13 17 1013.6 1013.8 0.0
02/03:30pm 21.8 17.2 6.5 37 7.9 NW 20 30 11 16 1013.7 1013.9 0.0
02/03:07pm 22.4 15.4 6.2 35 8.4 NW 32 50 17 27 1013.5 1013.6 0.0
02/03:00pm 22.6 15.3 5.5 33 8.7 NW 33 50 18 27 1013.5 1013.6 0.0
02/02:33pm 23.3 15.1 6.6 34 8.7 NW 39 57 21 31 1013.4 1013.5 0.0
02/02:30pm 23.8 14.7 6.1 32 9.2 NW 43 57 23 31 1013.4 1013.5 0.0
02/02:10pm 24.5 16.2 6.3 31 9.5 NW 39 57 21 31 1013.4 1013.5 0.0
02/02:00pm 24.8 16.5 6.1 30 9.8 NW 39 56 21 30 1013.5 1013.6 0.0
02/01:40pm 24.2 15.7 6.9 33 9.2 NW 41 59 22 32 1013.7 1013.9 0.0
02/01:30pm 24.1 15.8 5.9 31 9.5 NW 39 52 21 28 1013.8 1014.0 0.0
02/01:00pm 23.8 16.3 6.1 32 9.2 NNW 35 48 19 26 1014.2 1014.4 0.0
02/12:30pm 24.0 16.1 6.3 32 9.3 NNW 37 48 20 26 1014.8 1014.9 0.0
02/12:03pm 23.3 16.9 5.2 31 9.2 NNW 28 46 15 25 1015.5 1015.6 0.0
02/12:00pm 23.5 17.2 5.9 32 9.1 NNW 28 43 15 23 1015.6 1015.7 0.0
02/11:30am 23.0 15.7 5.4 32 9.0 NNW 33 48 18 26 1016.2 1016.4 0.0
02/11:00am 21.4 13.6 4.9 34 8.3 NNW 35 48 19 26 1016.7 1016.9 0.0
02/10:30am 21.1 13.7 5.1 35 8.0 NNW 33 52 18 28 1017.3 1017.4 0.0
02/10:26am 20.9 13.7 4.9 35 8.0 NNW 32 52 17 28 1017.4 1017.5 0.0
02/10:16am 20.9 14.8 6.4 39 7.4 NNW 28 37 15 20 1017.6 1017.7 0.0
02/10:00am 17.0 15.8 10.4 65 3.6 E 7 9 4 5 1017.8 1017.9 0.0
02/09:30am 14.5 14.0 9.3 71 2.7 SSE 2 7 1 4 1018.0 1018.1 0.0
02/09:00am 12.2 10.6 8.1 76 2.1 SSW 6 7 3 4 1018.2 1018.4 0.2
02/08:30am 10.7 9.9 6.5 75 2.0 CALM 0 0 0 0 1018.4 1018.6 0.2
02/08:00am 8.8 8.2 7.3 90 0.7 CALM 0 0 0 0 1018.5 1018.7 0.2
02/07:30am 5.2 3.9 3.9 91 0.6 CALM 0 0 0 0 1018.2 1018.4 0.2
02/07:00am 5.7 3.2 4.8 94 0.4 SSW 7 9 4 5 1018.1 1018.3 0.2
02/06:30am 4.4 1.9 3.5 94 0.4 SSW 6 9 3 5 1017.9 1018.0 0.2
02/06:00am 4.0 1.3 2.5 90 0.6 SSW 6 7 3 4 1017.7 1017.8 0.2
02/05:30am 5.0 2.2 3.2 88 0.8 S 7 9 4 5 1017.6 1017.7 0.2
02/05:00am 5.9 4.6 4.1 88 0.8 CALM 0 7 0 4 1017.5 1017.6 0.2
02/04:30am 4.1 1.3 1.8 85 0.9 N 6 9 3 5 1017.7 1017.8 0.2
02/04:00am 5.5 3.7 3.2 85 1.0 NW 2 7 1 4 1017.6 1017.7 0.2
02/03:30am 5.3 3.1 3.3 87 0.8 NW 4 9 2 5 1018.0 1018.1 0.2
02/03:00am 5.9 4.5 3.7 86 0.9 CALM 0 0 0 0 1018.2 1018.4 0.2
02/02:30am 5.4 3.9 2.8 83 1.1 CALM 0 0 0 0 1018.4 1018.6 0.2
02/02:00am 6.9 5.8 4.9 87 0.9 CALM 0 0 0 0 1018.3 1018.5 0.2
02/01:30am 6.0 3.5 3.5 84 1.1 NNE 6 7 3 4 1018.4 1018.6 0.2
02/01:00am 6.9 5.1 5.2 89 0.8 SE 4 9 2 5 1018.6 1018.8 0.2
02/12:30am 6.1 3.6 3.9 86 1.0 SE 6 7 3 4 1018.6 1018.8 0.2
02/12:00am 6.0 4.1 2.8 80 1.3 SE 2 7 1 4 1018.9 1019.1 0.2

Other Formats:

Comma delimited format used in spreadsheet applications
http://www.bom.gov.au/fwo/IDN60801/IDN60801.95754.axf

JavaScript Object Notation format (JSON) in row-major order
http://www.bom.gov.au/fwo/IDN60801/IDN60801.95754.json